createdAt,value
2018-07-05T00:02:15.627Z,24.20
2018-07-05T00:07:41.703Z,24.30
2018-07-05T00:10:27.949Z,24.30
2018-07-05T00:13:14.002Z,24.10
2018-07-05T00:16:00.042Z,24.10
2018-07-05T00:18:46.106Z,24.00
2018-07-05T00:21:32.220Z,23.90
2018-07-05T00:24:18.230Z,23.70
2018-07-05T00:27:04.344Z,23.60
2018-07-05T00:29:50.324Z,23.50
2018-07-05T00:32:36.308Z,23.50
2018-07-05T00:35:22.569Z,23.50
2018-07-05T00:38:08.859Z,23.50
2018-07-05T00:40:55.006Z,23.40
2018-07-05T00:43:41.000Z,23.40
2018-07-05T00:46:27.093Z,23.40
2018-07-05T00:49:13.091Z,23.40
2018-07-05T00:51:59.109Z,23.40
2018-07-05T00:54:45.134Z,23.30
2018-07-05T00:57:31.452Z,23.30
2018-07-05T01:00:17.325Z,23.30
2018-07-05T01:03:03.539Z,23.30
2018-07-05T01:05:49.782Z,23.60
2018-07-05T01:08:35.929Z,23.80
2018-07-05T01:11:22.033Z,23.90
2018-07-05T01:14:07.989Z,24.10
2018-07-05T01:16:54.183Z,24.20
2018-07-05T01:19:40.316Z,24.30
2018-07-05T01:22:26.668Z,24.30
2018-07-05T01:25:12.573Z,24.40
2018-07-05T01:27:58.601Z,24.20
2018-07-05T01:30:44.616Z,24.00
2018-07-05T01:33:30.714Z,24.00
2018-07-05T01:36:21.960Z,24.10
2018-07-05T01:39:08.740Z,24.10
2018-07-05T01:41:54.967Z,24.20
2018-07-05T01:44:40.954Z,24.20
2018-07-05T01:47:27.012Z,24.20
2018-07-05T01:50:13.140Z,24.10
2018-07-05T01:52:59.247Z,24.00
2018-07-05T01:55:45.376Z,23.90
2018-07-05T01:58:31.343Z,23.90
2018-07-05T02:01:17.324Z,23.90
2018-07-05T02:04:03.520Z,24.00
2018-07-05T02:06:49.453Z,24.00
2018-07-05T02:09:35.576Z,24.00
2018-07-05T02:12:21.537Z,24.00
2018-07-05T02:15:07.790Z,24.00
2018-07-05T02:17:53.948Z,24.10
2018-07-05T02:20:40.046Z,24.10
2018-07-05T02:23:26.109Z,24.00
2018-07-05T02:26:12.256Z,23.90
2018-07-05T02:28:58.519Z,23.80
2018-07-05T02:31:44.637Z,23.80
2018-07-05T02:34:30.618Z,23.80
2018-07-05T02:37:16.830Z,23.70
2018-07-05T02:40:02.819Z,23.80
2018-07-05T02:42:48.900Z,23.90
2018-07-05T02:45:34.973Z,23.90
2018-07-05T02:48:21.078Z,23.90
2018-07-05T02:51:07.113Z,24.00
2018-07-05T02:53:53.116Z,23.90
2018-07-05T02:56:39.245Z,23.80
2018-07-05T02:59:25.365Z,23.80
2018-07-05T03:02:11.469Z,23.80
2018-07-05T03:04:57.580Z,23.80
2018-07-05T03:07:43.631Z,23.90
2018-07-05T03:10:29.611Z,23.80
2018-07-05T03:13:15.735Z,23.60
2018-07-05T03:16:01.703Z,23.40
2018-07-05T03:18:47.825Z,23.30
2018-07-05T03:21:33.815Z,23.20
2018-07-05T03:24:19.756Z,23.10
2018-07-05T03:27:05.721Z,23.20
2018-07-05T03:29:51.656Z,23.00
2018-07-05T03:32:37.856Z,22.90
2018-07-05T03:35:23.945Z,23.20
2018-07-05T03:38:10.024Z,23.40
2018-07-05T03:40:56.305Z,23.50
2018-07-05T03:43:42.547Z,23.50
2018-07-05T03:46:28.640Z,23.40
2018-07-05T03:49:14.716Z,23.30
2018-07-05T03:52:00.796Z,23.30
2018-07-05T03:57:26.528Z,23.10
2018-07-05T04:00:12.819Z,23.30
2018-07-05T04:02:58.841Z,23.30
2018-07-05T04:05:44.919Z,23.30
2018-07-05T04:08:31.228Z,23.40
2018-07-05T04:11:17.356Z,23.30
2018-07-05T04:14:03.353Z,23.40
2018-07-05T04:16:49.917Z,23.50
2018-07-05T04:19:35.900Z,23.60
2018-07-05T04:22:22.173Z,23.80
2018-07-05T04:25:08.274Z,23.70
2018-07-05T04:27:54.377Z,23.70
2018-07-05T04:30:40.451Z,23.60
2018-07-05T04:33:26.596Z,23.50
2018-07-05T04:36:12.679Z,23.50
2018-07-05T04:38:58.772Z,23.50
2018-07-05T04:41:44.863Z,23.50
2018-07-05T04:44:30.928Z,23.60
2018-07-05T04:47:17.209Z,23.50
2018-07-05T04:50:03.201Z,23.40
2018-07-05T04:52:49.236Z,23.40
2018-07-05T04:55:35.571Z,23.40
2018-07-05T04:58:21.703Z,23.30
2018-07-05T05:01:07.792Z,23.40
2018-07-05T05:03:53.697Z,23.30
2018-07-05T05:06:39.611Z,23.30
2018-07-05T05:09:25.604Z,23.50
2018-07-05T05:12:12.332Z,23.60
2018-07-05T05:14:58.442Z,23.80
2018-07-05T05:17:44.419Z,23.80
2018-07-05T05:20:30.481Z,23.90
2018-07-05T05:23:16.484Z,23.90
2018-07-05T05:26:02.473Z,23.90
2018-07-05T05:28:48.480Z,23.90
2018-07-05T05:31:34.741Z,23.80
2018-07-05T05:34:21.107Z,23.50
2018-07-05T05:37:07.047Z,23.40
2018-07-05T05:39:53.132Z,23.20
2018-07-05T05:42:39.176Z,23.00
2018-07-05T05:45:25.288Z,23.10
2018-07-05T05:48:11.524Z,23.10
2018-07-05T05:50:57.681Z,23.20
2018-07-05T05:53:43.906Z,23.40
2018-07-05T05:56:30.160Z,23.50
2018-07-05T05:59:16.399Z,23.40
2018-07-05T06:02:02.604Z,23.30
2018-07-05T06:04:48.640Z,23.30
2018-07-05T06:07:34.748Z,23.30
2018-07-05T06:10:20.930Z,23.30
2018-07-05T06:13:07.127Z,23.40
2018-07-05T06:15:53.042Z,23.30
2018-07-05T06:18:39.427Z,23.30
2018-07-05T06:21:25.577Z,23.40
2018-07-05T06:24:11.591Z,23.30
2018-07-05T06:26:57.690Z,23.40
2018-07-05T06:29:43.742Z,23.50
2018-07-05T06:32:29.913Z,23.70
2018-07-05T06:35:15.855Z,23.70
2018-07-05T06:38:02.041Z,23.70
2018-07-05T06:40:48.041Z,23.40
2018-07-05T06:43:34.051Z,23.20
2018-07-05T06:46:20.015Z,23.30
2018-07-05T06:49:06.080Z,23.60
2018-07-05T06:54:32.115Z,24.10
2018-07-05T06:57:18.135Z,24.30
2018-07-05T07:00:04.219Z,24.10
2018-07-05T07:02:50.183Z,23.80
2018-07-05T07:05:36.344Z,23.80
2018-07-05T07:08:22.518Z,23.90
2018-07-05T07:11:08.611Z,24.10
2018-07-05T07:13:54.685Z,24.20
2018-07-05T07:16:40.681Z,24.30
2018-07-05T07:19:26.656Z,24.40
2018-07-05T07:22:12.739Z,24.30
2018-07-05T07:24:58.707Z,24.10
2018-07-05T07:27:44.650Z,24.10
2018-07-05T07:30:30.727Z,24.10
2018-07-05T07:33:16.883Z,24.20
2018-07-05T07:36:03.073Z,24.30
2018-07-05T07:38:49.166Z,24.40
2018-07-05T07:41:35.227Z,24.60
2018-07-05T07:44:08.603Z,24.80
2018-07-05T07:46:36.065Z,25.00
2018-07-05T07:49:03.525Z,25.10
2018-07-05T07:51:30.965Z,25.30
2018-07-05T07:53:58.427Z,25.40
2018-07-05T07:56:25.917Z,25.50
2018-07-05T07:58:53.532Z,25.50
2018-07-05T08:01:20.987Z,25.60
2018-07-05T08:03:48.494Z,25.70
2018-07-05T08:06:15.940Z,25.60
2018-07-05T08:08:43.407Z,25.50
2018-07-05T08:11:10.857Z,25.60
2018-07-05T08:13:38.347Z,25.60
2018-07-05T08:16:05.818Z,25.70
2018-07-05T08:18:33.260Z,25.80
2018-07-05T08:21:00.728Z,25.90
2018-07-05T08:23:28.179Z,25.60
2018-07-05T08:28:23.345Z,25.40
2018-07-05T08:30:50.795Z,25.30
2018-07-05T08:33:18.284Z,25.50
2018-07-05T08:35:45.885Z,25.60
2018-07-05T08:38:13.331Z,25.80
2018-07-05T08:40:40.789Z,25.50
2018-07-05T08:43:08.260Z,25.70
2018-07-05T08:45:35.720Z,25.60
2018-07-05T08:48:03.174Z,25.50
2018-07-05T08:50:30.635Z,25.50
2018-07-05T08:52:58.093Z,25.50
2018-07-05T08:55:25.706Z,25.70
2018-07-05T08:57:53.143Z,25.80
2018-07-05T09:00:20.660Z,25.90
2018-07-05T09:02:48.115Z,26.10
2018-07-05T09:05:15.670Z,26.20
2018-07-05T09:07:43.095Z,26.30
2018-07-05T09:10:10.637Z,26.20
2018-07-05T09:12:38.082Z,25.90
2018-07-05T09:15:05.576Z,25.70
2018-07-05T09:17:33.056Z,25.40
2018-07-05T09:20:00.659Z,25.60
2018-07-05T09:22:28.125Z,25.80
2018-07-05T09:24:55.583Z,26.00
2018-07-05T09:27:23.023Z,26.20
2018-07-05T09:29:50.492Z,26.40
2018-07-05T09:32:17.996Z,26.60
2018-07-05T09:34:45.439Z,26.70
2018-07-05T09:37:12.952Z,26.80
2018-07-05T09:39:40.387Z,26.90
2018-07-05T09:42:08.031Z,27.00
2018-07-05T09:44:35.471Z,27.10
2018-07-05T09:47:02.992Z,27.10
2018-07-05T09:49:30.443Z,27.20
2018-07-05T09:51:57.895Z,27.30
2018-07-05T09:54:25.357Z,27.30
2018-07-05T09:56:52.828Z,27.40
2018-07-05T09:59:20.286Z,27.50
2018-07-05T10:04:15.371Z,27.30
2018-07-05T10:06:42.830Z,27.40
2018-07-05T10:09:10.265Z,27.50
2018-07-05T10:11:37.852Z,27.50
2018-07-05T10:14:05.317Z,27.60
2018-07-05T10:16:32.758Z,27.70
2018-07-05T10:19:00.233Z,27.70
2018-07-05T10:21:27.675Z,27.80
2018-07-05T10:23:55.123Z,27.80
2018-07-05T10:26:22.587Z,27.80
2018-07-05T10:29:02.415Z,27.80
2018-07-05T10:31:48.560Z,27.70
2018-07-05T10:34:22.185Z,27.70
2018-07-05T10:36:49.616Z,27.70
2018-07-05T10:41:57.112Z,27.70
2018-07-05T10:44:43.141Z,27.70
2018-07-05T10:47:29.090Z,27.70
2018-07-05T10:50:15.073Z,27.70
2018-07-05T10:53:01.154Z,27.80
2018-07-05T10:55:47.144Z,27.90
2018-07-05T10:58:33.237Z,28.10
2018-07-05T11:01:19.170Z,28.20
2018-07-05T11:04:05.125Z,28.30
2018-07-05T11:06:51.175Z,28.30
2018-07-05T11:09:37.099Z,28.30
2018-07-05T11:12:23.068Z,28.30
2018-07-05T11:15:09.048Z,28.30
2018-07-05T11:17:55.146Z,28.40
2018-07-05T11:20:41.247Z,28.40
2018-07-05T11:23:27.409Z,28.50
2018-07-05T11:26:13.418Z,28.50
2018-07-05T11:28:59.449Z,28.60
2018-07-05T11:31:45.535Z,28.70
2018-07-05T11:34:31.621Z,28.70
2018-07-05T11:37:17.718Z,28.60
2018-07-05T11:40:03.815Z,28.60
2018-07-05T11:42:50.044Z,28.60
2018-07-05T11:45:36.050Z,28.60
2018-07-05T11:48:22.230Z,28.60
2018-07-05T11:51:08.325Z,28.60
2018-07-05T11:53:54.439Z,28.50
2018-07-05T11:56:40.485Z,28.60
2018-07-05T11:59:26.571Z,28.50
2018-07-05T12:02:12.485Z,28.70
2018-07-05T12:04:58.621Z,28.80
2018-07-05T12:07:44.862Z,28.80
2018-07-05T12:10:30.977Z,28.80
2018-07-05T12:13:17.053Z,28.80
2018-07-05T12:16:03.142Z,28.90
2018-07-05T12:18:50.525Z,28.90
2018-07-05T12:21:37.908Z,28.80
2018-07-05T12:24:23.858Z,28.80
2018-07-05T12:27:09.798Z,28.90
2018-07-05T12:29:55.953Z,28.80
2018-07-05T12:32:41.948Z,28.90
2018-07-05T12:35:28.138Z,28.90
2018-07-05T12:38:14.336Z,29.00
2018-07-05T12:41:00.379Z,29.00
2018-07-05T12:43:46.311Z,29.10
2018-07-05T12:46:32.263Z,29.10
2018-07-05T12:49:18.533Z,29.20
2018-07-05T12:52:04.592Z,29.20
2018-07-05T12:54:50.688Z,29.20
2018-07-05T12:57:36.970Z,29.30
2018-07-05T13:00:23.108Z,29.30
2018-07-05T13:03:09.133Z,29.30
2018-07-05T13:05:55.237Z,29.20
2018-07-05T13:08:41.246Z,29.20
2018-07-05T13:11:27.176Z,29.30
2018-07-05T13:14:13.197Z,29.40
2018-07-05T13:16:59.250Z,29.40
2018-07-05T13:19:45.325Z,29.30
2018-07-05T13:22:31.343Z,29.30
2018-07-05T13:25:17.339Z,29.40
2018-07-05T13:28:03.431Z,29.50
2018-07-05T13:30:49.486Z,29.60
2018-07-05T13:33:35.811Z,29.60
2018-07-05T13:36:27.100Z,29.60
2018-07-05T13:39:13.221Z,29.50
2018-07-05T13:41:59.412Z,29.50
2018-07-05T13:44:45.444Z,29.50
2018-07-05T13:47:31.481Z,29.40
2018-07-05T13:50:17.349Z,29.40
2018-07-05T13:53:03.501Z,29.30
2018-07-05T13:55:49.583Z,29.30
2018-07-05T13:58:35.543Z,29.30
2018-07-05T14:01:21.703Z,29.30
2018-07-05T14:04:07.990Z,29.30
2018-07-05T14:06:54.041Z,29.40
2018-07-05T14:09:40.138Z,29.40
2018-07-05T14:12:26.209Z,29.30
2018-07-05T14:15:12.196Z,29.20
2018-07-05T14:17:58.309Z,29.20
2018-07-05T14:20:44.491Z,29.20
2018-07-05T14:23:30.506Z,29.20
2018-07-05T14:26:16.603Z,29.20
2018-07-05T14:29:02.824Z,29.20
2018-07-05T14:31:48.932Z,29.30
2018-07-05T14:34:35.029Z,29.20
2018-07-05T14:37:21.113Z,29.20
2018-07-05T14:40:07.154Z,29.20
2018-07-05T14:42:53.286Z,29.20
2018-07-05T14:45:39.190Z,29.20
2018-07-05T14:48:25.429Z,29.00
2018-07-05T14:51:11.303Z,29.00
2018-07-05T14:53:57.403Z,29.00
2018-07-05T14:56:43.312Z,29.10
2018-07-05T14:59:29.500Z,29.20
2018-07-05T15:02:15.561Z,29.20
2018-07-05T15:05:01.943Z,29.20
2018-07-05T15:07:48.087Z,29.30
2018-07-05T15:10:34.136Z,29.20
2018-07-05T15:13:20.050Z,29.20
2018-07-05T15:16:06.089Z,29.00
2018-07-05T15:18:52.138Z,28.90
2018-07-05T15:21:38.448Z,28.80
2018-07-05T15:24:24.531Z,28.80
2018-07-05T15:27:10.670Z,28.70
2018-07-05T15:29:56.796Z,28.70
2018-07-05T15:32:42.857Z,28.60
2018-07-05T15:35:29.116Z,28.60
2018-07-05T15:38:15.332Z,28.70
2018-07-05T15:41:01.536Z,28.70
2018-07-05T15:43:47.502Z,28.60
2018-07-05T15:46:33.600Z,28.60
2018-07-05T15:49:19.675Z,28.60
2018-07-05T15:52:05.876Z,28.50
2018-07-05T15:54:52.114Z,28.40
2018-07-05T15:57:38.308Z,28.40
2018-07-05T16:00:24.252Z,28.20
2018-07-05T16:03:10.167Z,28.20
2018-07-05T16:05:56.381Z,28.30
2018-07-05T16:08:42.955Z,28.30
2018-07-05T16:11:29.434Z,28.30
2018-07-05T16:14:15.508Z,28.20
2018-07-05T16:17:01.531Z,28.20
2018-07-05T16:19:47.444Z,28.20
2018-07-05T16:22:33.406Z,28.10
2018-07-05T16:25:19.422Z,28.00
2018-07-05T16:28:05.635Z,28.00
2018-07-05T16:30:51.621Z,27.90
2018-07-05T16:33:37.776Z,27.80
2018-07-05T16:36:23.868Z,27.70
2018-07-05T16:39:09.850Z,27.70
2018-07-05T16:41:55.857Z,27.70
2018-07-05T16:44:42.129Z,27.70
2018-07-05T16:47:28.236Z,27.80
2018-07-05T16:50:14.139Z,27.90
2018-07-05T16:53:00.208Z,28.00
2018-07-05T16:55:46.192Z,28.00
2018-07-05T16:58:32.411Z,28.00
2018-07-05T17:01:19.111Z,28.00
2018-07-05T17:04:05.204Z,28.00
2018-07-05T17:06:51.295Z,28.00
2018-07-05T17:09:37.307Z,28.00
2018-07-05T17:12:23.489Z,28.00
2018-07-05T17:15:09.784Z,28.00
2018-07-05T17:17:55.669Z,28.00
2018-07-05T17:20:41.793Z,27.90
2018-07-05T17:23:28.061Z,27.90
2018-07-05T17:26:14.246Z,27.80
2018-07-05T17:29:00.305Z,27.90
2018-07-05T17:31:46.373Z,27.90
2018-07-05T17:34:32.465Z,27.90
2018-07-05T17:37:18.956Z,28.00
2018-07-05T17:40:05.037Z,27.90
2018-07-05T17:42:51.197Z,27.90
2018-07-05T17:45:37.386Z,27.90
2018-07-05T17:48:23.436Z,27.90
2018-07-05T17:53:49.761Z,27.90
2018-07-05T17:56:35.826Z,27.90
2018-07-05T17:59:21.899Z,27.90
2018-07-05T18:02:08.116Z,27.90
2018-07-05T18:04:54.338Z,27.80
2018-07-05T18:07:40.351Z,27.60
2018-07-05T18:10:26.415Z,27.60
2018-07-05T18:13:12.627Z,27.60
2018-07-05T18:15:58.680Z,27.60
2018-07-05T18:21:24.755Z,27.50
2018-07-05T18:26:50.876Z,27.40
2018-07-05T18:29:36.917Z,27.30
2018-07-05T18:32:22.896Z,27.30
2018-07-05T18:35:08.940Z,27.40
2018-07-05T18:37:55.106Z,27.40
2018-07-05T18:40:41.243Z,27.40
2018-07-05T18:43:27.409Z,27.30
2018-07-05T18:46:13.412Z,27.30
2018-07-05T18:48:59.653Z,27.20
2018-07-05T18:51:45.587Z,27.10
2018-07-05T18:54:31.570Z,27.10
2018-07-05T18:57:17.649Z,27.10
2018-07-05T19:00:03.976Z,27.00
2018-07-05T19:02:49.942Z,27.00
2018-07-05T19:05:37.276Z,26.90
2018-07-05T19:08:23.373Z,26.80
2018-07-05T19:11:09.460Z,26.60
2018-07-05T19:13:55.541Z,26.60
2018-07-05T19:16:42.034Z,26.40
2018-07-05T19:19:28.154Z,26.30
2018-07-05T19:22:14.243Z,26.30
2018-07-05T19:25:00.363Z,26.20
2018-07-05T19:27:46.556Z,26.10
2018-07-05T19:30:32.692Z,26.00
2018-07-05T19:33:18.614Z,26.00
2018-07-05T19:36:04.740Z,25.90
2018-07-05T19:38:50.926Z,25.90
2018-07-05T19:41:37.035Z,25.80
2018-07-05T19:44:23.179Z,25.60
2018-07-05T19:47:09.352Z,25.50
2018-07-05T19:49:55.371Z,25.30
2018-07-05T19:52:41.689Z,25.20
2018-07-05T19:55:28.651Z,25.10
2018-07-05T19:58:16.961Z,25.10
2018-07-05T20:01:03.234Z,24.90
2018-07-05T20:03:49.332Z,24.80
2018-07-05T20:06:35.287Z,24.80
2018-07-05T20:09:21.416Z,24.70
2018-07-05T20:12:07.551Z,24.60
2018-07-05T20:14:53.590Z,24.50
2018-07-05T20:17:39.634Z,24.40
2018-07-05T20:20:26.766Z,24.40
2018-07-05T20:23:12.948Z,24.30
2018-07-05T20:25:59.004Z,24.30
2018-07-05T20:28:45.261Z,24.20
2018-07-05T20:31:31.212Z,24.10
2018-07-05T20:34:17.216Z,24.20
2018-07-05T20:37:03.456Z,24.30
2018-07-05T20:39:49.672Z,24.30
2018-07-05T20:42:36.129Z,24.30
2018-07-05T20:48:02.252Z,24.10
2018-07-05T20:50:48.251Z,24.00
2018-07-05T20:53:34.196Z,23.90
2018-07-05T20:56:20.230Z,23.90
2018-07-05T20:59:06.225Z,23.80
2018-07-05T21:01:52.313Z,23.80
2018-07-05T21:04:38.512Z,23.80
2018-07-05T21:07:24.471Z,23.80
2018-07-05T21:10:10.617Z,23.80
2018-07-05T21:12:56.714Z,23.70
2018-07-05T21:15:42.809Z,23.60
2018-07-05T21:18:28.971Z,23.50
2018-07-05T21:21:15.053Z,23.50
2018-07-05T21:24:00.968Z,23.40
2018-07-05T21:26:47.264Z,23.30
2018-07-05T21:29:33.263Z,23.30
2018-07-05T21:32:19.395Z,23.30
2018-07-05T21:35:05.465Z,23.30
2018-07-05T21:37:51.681Z,23.30
2018-07-05T21:40:37.872Z,23.20
2018-07-05T21:43:23.827Z,23.10
2018-07-05T21:46:09.845Z,23.10
2018-07-05T21:48:55.906Z,23.10
2018-07-05T21:51:42.140Z,23.10
2018-07-05T21:54:28.467Z,23.10
2018-07-05T21:57:14.586Z,23.00
2018-07-05T22:00:00.713Z,22.90
2018-07-05T22:05:27.115Z,22.70
2018-07-05T22:08:13.096Z,22.70
2018-07-05T22:10:59.045Z,22.60
2018-07-05T22:16:25.112Z,22.50
2018-07-05T22:19:11.307Z,22.50
2018-07-05T22:21:57.481Z,22.50
2018-07-05T22:24:43.629Z,22.50
2018-07-05T22:27:29.961Z,22.60
2018-07-05T22:30:16.069Z,22.70
2018-07-05T22:33:02.190Z,22.60
2018-07-05T22:35:48.248Z,22.50
2018-07-05T22:38:34.220Z,22.60
2018-07-05T22:41:20.332Z,22.50
2018-07-05T22:44:06.395Z,22.50
2018-07-05T22:46:52.672Z,22.50
2018-07-05T22:49:38.924Z,22.40
2018-07-05T22:52:25.033Z,22.30
2018-07-05T22:55:11.104Z,22.30
2018-07-05T22:57:57.495Z,22.20
2018-07-05T23:00:43.458Z,22.30
2018-07-05T23:03:29.456Z,22.30
2018-07-05T23:06:15.701Z,22.30
2018-07-05T23:09:01.607Z,22.30
2018-07-05T23:11:47.763Z,22.30
2018-07-05T23:14:33.826Z,22.30
2018-07-05T23:17:19.947Z,22.50
2018-07-05T23:20:05.925Z,22.40
2018-07-05T23:22:52.180Z,22.30
2018-07-05T23:25:38.252Z,22.20
2018-07-05T23:28:24.423Z,22.10
2018-07-05T23:31:10.649Z,22.20
2018-07-05T23:33:56.917Z,22.10
2018-07-05T23:36:42.922Z,22.00
2018-07-05T23:39:29.040Z,21.90
2018-07-05T23:42:15.079Z,21.80
2018-07-05T23:45:01.057Z,21.90
2018-07-05T23:47:47.160Z,22.00
2018-07-05T23:50:33.563Z,21.90
2018-07-05T23:53:19.799Z,22.00
2018-07-05T23:56:05.879Z,21.90
2018-07-05T23:58:51.828Z,21.80
